createdAt,value
2018-11-03T00:01:16.139Z,10.38
2018-11-03T00:03:44.392Z,11.05
2018-11-03T00:06:12.626Z,11.00
2018-11-03T00:08:40.874Z,9.00
2018-11-03T00:11:09.104Z,11.22
2018-11-03T00:13:37.379Z,13.38
2018-11-03T00:16:05.934Z,10.58
2018-11-03T00:18:34.182Z,10.72
2018-11-03T00:21:02.499Z,11.38
2018-11-03T00:23:30.807Z,14.10
2018-11-03T00:25:59.042Z,11.48
2018-11-03T00:28:27.397Z,11.40
2018-11-03T00:30:55.686Z,13.80
2018-11-03T00:33:23.966Z,14.10
2018-11-03T00:35:52.206Z,12.18
2018-11-03T00:38:20.473Z,11.33
2018-11-03T00:40:48.730Z,13.18
2018-11-03T00:43:17.094Z,11.55
2018-11-03T00:45:45.329Z,11.00
2018-11-03T00:48:13.638Z,11.25
2018-11-03T00:50:41.931Z,12.55
2018-11-03T00:53:10.808Z,10.03
2018-11-03T00:55:39.161Z,10.00
2018-11-03T00:58:07.362Z,9.10
2018-11-03T01:00:35.634Z,12.35
2018-11-03T01:03:03.937Z,9.45
2018-11-03T01:05:32.185Z,9.95
2018-11-03T01:08:00.546Z,9.53
2018-11-03T01:10:28.918Z,10.08
2018-11-03T01:12:57.119Z,8.78
2018-11-03T01:15:25.421Z,9.48
2018-11-03T01:17:53.669Z,12.00
2018-11-03T01:20:21.954Z,9.43
2018-11-03T01:22:50.221Z,9.08
2018-11-03T01:25:18.506Z,9.53
2018-11-03T01:27:46.753Z,9.30
2018-11-03T01:30:16.242Z,10.55
2018-11-03T01:32:44.750Z,8.45
2018-11-03T01:35:12.972Z,10.80
2018-11-03T01:37:41.274Z,8.73
2018-11-03T01:40:11.044Z,9.58
2018-11-03T01:42:39.349Z,10.78
2018-11-03T01:45:07.694Z,8.48
2018-11-03T01:47:36.366Z,9.20
2018-11-03T01:50:06.561Z,11.33
2018-11-03T01:52:35.704Z,9.10
2018-11-03T01:55:04.066Z,10.40
2018-11-03T01:57:32.278Z,12.07
2018-11-03T02:00:00.530Z,9.35
2018-11-03T02:02:28.743Z,10.08
2018-11-03T02:04:56.973Z,11.83
2018-11-03T02:07:25.225Z,9.18
2018-11-03T02:09:53.447Z,9.80
2018-11-03T02:12:21.698Z,9.13
2018-11-03T02:14:49.981Z,10.23
2018-11-03T02:17:18.203Z,13.75
2018-11-03T02:19:46.502Z,11.73
2018-11-03T02:22:14.773Z,10.48
2018-11-03T02:24:42.982Z,10.05
2018-11-03T02:27:11.202Z,14.53
2018-11-03T02:29:39.407Z,10.32
2018-11-03T02:32:07.630Z,10.48
2018-11-03T02:34:35.874Z,10.38
2018-11-03T02:37:04.210Z,10.32
2018-11-03T02:39:32.507Z,10.75
2018-11-03T02:42:00.778Z,10.75
2018-11-03T02:44:29.014Z,9.95
2018-11-03T02:46:57.300Z,10.00
2018-11-03T02:49:25.579Z,9.75
2018-11-03T02:51:53.807Z,10.72
2018-11-03T02:54:22.072Z,10.85
2018-11-03T02:56:50.306Z,9.78
2018-11-03T02:59:18.583Z,13.05
2018-11-03T03:01:46.831Z,12.10
2018-11-03T03:04:15.153Z,10.50
2018-11-03T03:06:43.433Z,10.35
2018-11-03T03:09:11.666Z,14.05
2018-11-03T03:11:39.892Z,12.20
2018-11-03T03:14:08.116Z,16.55
2018-11-03T03:16:36.393Z,13.45
2018-11-03T03:19:04.922Z,10.80
2018-11-03T03:21:33.202Z,11.20
2018-11-03T03:24:01.484Z,11.05
2018-11-03T03:26:29.936Z,11.20
2018-11-03T03:28:58.196Z,16.30
2018-11-03T03:31:26.441Z,12.15
2018-11-03T03:33:54.741Z,11.78
2018-11-03T03:36:22.994Z,12.80
2018-11-03T03:38:51.327Z,13.32
2018-11-03T03:41:19.609Z,14.15
2018-11-03T03:43:47.822Z,17.32
2018-11-03T03:46:16.097Z,17.00
2018-11-03T03:48:44.369Z,13.85
2018-11-03T03:51:12.750Z,17.48
2018-11-03T03:53:40.989Z,15.65
2018-11-03T03:56:09.197Z,19.77
2018-11-03T03:58:37.454Z,20.48
2018-11-03T04:01:05.817Z,15.88
2018-11-03T04:03:34.061Z,16.25
2018-11-03T04:06:02.329Z,16.85
2018-11-03T04:08:30.569Z,16.10
2018-11-03T04:10:58.801Z,18.07
2018-11-03T04:13:27.130Z,16.37
2018-11-03T04:15:55.354Z,20.97
2018-11-03T04:18:23.625Z,16.40
2018-11-03T04:20:51.839Z,19.05
2018-11-03T04:23:20.081Z,16.95
2018-11-03T04:25:48.299Z,19.57
2018-11-03T04:28:16.649Z,19.62
2018-11-03T04:30:44.890Z,22.20
2018-11-03T04:33:13.125Z,25.02
2018-11-03T04:35:41.371Z,18.23
2018-11-03T04:38:09.685Z,18.42
2018-11-03T04:40:37.927Z,20.10
2018-11-03T04:43:06.326Z,22.37
2018-11-03T04:45:34.668Z,14.63
2018-11-03T04:48:02.846Z,13.38
2018-11-03T04:50:31.168Z,15.38
2018-11-03T04:52:59.510Z,22.93
2018-11-03T04:55:27.721Z,14.30
2018-11-03T04:57:56.001Z,15.83
2018-11-03T05:00:24.249Z,14.95
2018-11-03T05:02:52.597Z,15.10
2018-11-03T05:05:20.885Z,14.07
2018-11-03T05:07:49.118Z,16.20
2018-11-03T05:10:17.551Z,13.43
2018-11-03T05:12:45.795Z,13.83
2018-11-03T05:15:14.134Z,12.93
2018-11-03T05:17:42.341Z,12.88
2018-11-03T05:20:10.581Z,13.83
2018-11-03T05:22:38.815Z,14.70
2018-11-03T05:25:07.037Z,14.28
2018-11-03T05:27:35.369Z,14.35
2018-11-03T05:30:03.890Z,14.98
2018-11-03T05:32:32.287Z,18.07
2018-11-03T05:35:00.657Z,15.90
2018-11-03T05:37:28.949Z,16.40
2018-11-03T05:39:57.132Z,13.50
2018-11-03T05:42:25.374Z,15.30
2018-11-03T05:44:53.645Z,16.48
2018-11-03T05:47:21.862Z,16.67
2018-11-03T05:49:50.098Z,15.45
2018-11-03T05:52:18.366Z,17.48
2018-11-03T05:54:46.637Z,16.00
2018-11-03T05:57:14.942Z,15.05
2018-11-03T05:59:43.254Z,15.05
2018-11-03T06:02:11.586Z,18.60
2018-11-03T06:04:39.822Z,16.00
2018-11-03T06:07:08.089Z,17.45
2018-11-03T06:09:36.309Z,15.98
2018-11-03T06:12:05.054Z,19.02
2018-11-03T06:14:33.306Z,21.50
2018-11-03T06:17:02.691Z,18.80
2018-11-03T06:19:30.906Z,16.50
2018-11-03T06:21:59.125Z,16.30
2018-11-03T06:24:27.350Z,15.00
2018-11-03T06:26:55.585Z,15.28
2018-11-03T06:29:23.953Z,16.52
2018-11-03T06:31:52.265Z,17.57
2018-11-03T06:34:20.513Z,17.92
2018-11-03T06:36:48.802Z,15.53
2018-11-03T06:39:17.150Z,17.30
2018-11-03T06:41:45.415Z,19.62
2018-11-03T06:44:13.682Z,19.27
2018-11-03T06:46:42.020Z,16.77
2018-11-03T06:49:15.740Z,20.05
2018-11-03T06:51:44.052Z,19.35
2018-11-03T06:54:12.689Z,21.97
2018-11-03T06:56:40.949Z,18.85
2018-11-03T06:59:09.865Z,22.13
2018-11-03T07:01:38.152Z,20.92
2018-11-03T07:04:07.003Z,20.30
2018-11-03T07:06:35.366Z,20.08
2018-11-03T07:09:05.025Z,26.25
2018-11-03T07:11:33.322Z,23.95
2018-11-03T07:14:01.598Z,20.75
2018-11-03T07:16:29.879Z,23.45
2018-11-03T07:18:58.157Z,23.87
2018-11-03T07:21:26.389Z,27.30
2018-11-03T07:23:54.630Z,23.22
2018-11-03T07:26:22.882Z,19.95
2018-11-03T07:28:51.166Z,21.85
2018-11-03T07:31:19.429Z,21.60
2018-11-03T07:33:47.827Z,19.67
2018-11-03T07:36:16.366Z,21.70
2018-11-03T07:38:45.053Z,20.20
2018-11-03T07:41:13.484Z,21.55
2018-11-03T07:43:41.742Z,20.60
2018-11-03T07:46:09.985Z,19.07
2018-11-03T07:48:38.397Z,19.70
2018-11-03T07:51:06.737Z,20.57
2018-11-03T07:53:35.003Z,23.65
2018-11-03T07:56:03.289Z,22.25
2018-11-03T07:58:32.076Z,21.23
2018-11-03T08:01:00.333Z,21.00
2018-11-03T08:03:28.566Z,22.35
2018-11-03T08:05:57.069Z,28.47
2018-11-03T08:08:25.375Z,20.80
2018-11-03T08:10:54.129Z,24.07
2018-11-03T08:13:22.536Z,20.70
2018-11-03T08:15:50.927Z,21.85
2018-11-03T08:18:19.155Z,19.87
2018-11-03T08:20:47.469Z,24.92
2018-11-03T08:23:15.724Z,21.10
2018-11-03T08:25:43.951Z,21.20
2018-11-03T08:28:12.208Z,18.95
2018-11-03T08:30:40.522Z,19.27
2018-11-03T08:33:11.090Z,21.87
2018-11-03T08:35:39.513Z,18.12
2018-11-03T08:38:07.859Z,17.90
2018-11-03T08:40:36.165Z,16.00
2018-11-03T08:43:05.016Z,15.18
2018-11-03T08:45:33.329Z,15.08
2018-11-03T08:48:01.678Z,15.18
2018-11-03T08:50:29.990Z,15.10
2018-11-03T08:52:58.853Z,15.35
2018-11-03T08:55:27.096Z,15.28
2018-11-03T08:57:55.397Z,15.15
2018-11-03T09:00:23.866Z,14.03
2018-11-03T09:02:52.002Z,17.17
2018-11-03T09:05:20.306Z,14.15
2018-11-03T09:07:48.607Z,16.23
2018-11-03T09:10:16.933Z,15.53
2018-11-03T09:12:45.202Z,14.83
2018-11-03T09:15:14.258Z,14.25
2018-11-03T09:17:43.232Z,13.95
2018-11-03T09:20:12.486Z,15.20
2018-11-03T09:22:40.777Z,13.85
2018-11-03T09:25:11.238Z,15.95
2018-11-03T09:27:40.532Z,15.53
2018-11-03T09:30:11.173Z,13.53
2018-11-03T09:32:39.639Z,12.95
2018-11-03T09:35:08.665Z,13.83
2018-11-03T09:37:37.036Z,11.97
2018-11-03T09:40:06.692Z,13.60
2018-11-03T09:42:34.935Z,13.62
2018-11-03T09:45:03.369Z,14.10
2018-11-03T09:47:31.582Z,13.88
2018-11-03T09:49:59.857Z,15.58
2018-11-03T09:52:28.426Z,14.50
2018-11-03T09:54:56.973Z,13.88
2018-11-03T09:57:25.309Z,14.40
2018-11-03T09:59:53.516Z,13.55
2018-11-03T10:02:21.796Z,12.20
2018-11-03T10:04:50.125Z,14.53
2018-11-03T10:07:19.133Z,14.35
2018-11-03T10:09:47.367Z,12.82
2018-11-03T10:12:15.629Z,14.83
2018-11-03T10:14:43.845Z,12.53
2018-11-03T10:17:12.107Z,15.10
2018-11-03T10:19:40.469Z,13.45
2018-11-03T10:22:08.881Z,13.45
2018-11-03T10:24:37.221Z,17.77
2018-11-03T10:27:05.539Z,13.88
2018-11-03T10:29:33.826Z,14.35
2018-11-03T10:32:02.764Z,20.92
2018-11-03T10:34:31.176Z,14.38
2018-11-03T10:36:59.557Z,16.67
2018-11-03T10:39:27.797Z,17.27
2018-11-03T10:41:56.042Z,15.28
2018-11-03T10:44:25.836Z,15.15
2018-11-03T10:46:54.502Z,17.48
2018-11-03T10:49:23.465Z,14.65
2018-11-03T10:51:52.271Z,14.68
2018-11-03T10:54:20.746Z,13.43
2018-11-03T10:56:48.973Z,13.58
2018-11-03T10:59:17.229Z,14.53
2018-11-03T11:01:50.985Z,14.40
2018-11-03T11:04:24.816Z,13.62
2018-11-03T11:06:58.313Z,13.50
2018-11-03T11:09:36.057Z,14.25
2018-11-03T11:12:10.440Z,10.93
2018-11-03T11:14:38.741Z,12.70
2018-11-03T11:17:07.131Z,13.78
2018-11-03T11:19:35.414Z,12.20
2018-11-03T11:22:03.688Z,12.18
2018-11-03T11:24:31.974Z,12.23
2018-11-03T11:27:00.326Z,15.05
2018-11-03T11:29:28.674Z,11.20
2018-11-03T11:31:56.975Z,12.10
2018-11-03T11:34:25.237Z,12.82
2018-11-03T11:36:53.498Z,13.32
2018-11-03T11:39:21.704Z,12.40
2018-11-03T11:41:49.945Z,11.57
2018-11-03T11:44:18.247Z,12.05
2018-11-03T11:46:46.553Z,11.38
2018-11-03T11:49:15.227Z,11.28
2018-11-03T11:51:43.489Z,15.78
2018-11-03T11:54:11.870Z,10.88
2018-11-03T11:56:40.221Z,10.68
2018-11-03T11:59:08.482Z,10.90
2018-11-03T12:01:36.862Z,12.37
2018-11-03T12:04:05.302Z,11.53
2018-11-03T12:06:33.663Z,11.63
2018-11-03T12:09:01.995Z,10.40
2018-11-03T12:11:30.313Z,8.65
2018-11-03T12:13:58.761Z,10.05
2018-11-03T12:16:27.130Z,9.25
2018-11-03T12:18:55.383Z,11.05
2018-11-03T12:21:23.625Z,8.70
2018-11-03T12:23:51.842Z,8.85
2018-11-03T12:26:20.175Z,8.48
2018-11-03T12:28:48.458Z,10.82
2018-11-03T12:31:16.728Z,8.28
2018-11-03T12:33:45.049Z,10.32
2018-11-03T12:36:13.385Z,8.45
2018-11-03T12:38:41.653Z,9.20
2018-11-03T12:41:09.864Z,8.73
2018-11-03T12:43:38.254Z,9.65
2018-11-03T12:46:06.645Z,9.35
2018-11-03T12:48:34.847Z,8.58
2018-11-03T12:51:03.268Z,10.63
2018-11-03T12:53:31.647Z,9.10
2018-11-03T12:55:59.906Z,12.63
2018-11-03T12:58:28.194Z,11.78
2018-11-03T13:00:56.422Z,9.25
2018-11-03T13:03:24.693Z,10.63
2018-11-03T13:05:53.015Z,13.28
2018-11-03T13:08:21.423Z,12.28
2018-11-03T13:10:49.594Z,11.25
2018-11-03T13:13:17.827Z,10.15
2018-11-03T13:15:46.147Z,10.18
2018-11-03T13:18:14.447Z,12.73
2018-11-03T13:20:42.770Z,12.60
2018-11-03T13:23:17.567Z,11.80
2018-11-03T13:25:45.882Z,11.12
2018-11-03T13:28:14.130Z,10.38
2018-11-03T13:30:42.453Z,11.70
2018-11-03T13:33:10.803Z,11.05
2018-11-03T13:35:39.069Z,12.70
2018-11-03T13:38:07.387Z,11.80
2018-11-03T13:40:35.726Z,16.02
2018-11-03T13:43:04.050Z,11.40
2018-11-03T13:45:32.383Z,11.70
2018-11-03T13:48:00.689Z,12.93
2018-11-03T13:50:29.101Z,12.45
2018-11-03T13:52:57.420Z,11.85
2018-11-03T13:55:25.854Z,12.15
2018-11-03T13:57:54.099Z,13.25
2018-11-03T14:00:22.363Z,11.22
2018-11-03T14:02:50.600Z,9.15
2018-11-03T14:05:18.886Z,11.55
2018-11-03T14:07:47.391Z,10.50
2018-11-03T14:10:16.791Z,11.10
2018-11-03T14:12:46.089Z,12.35
2018-11-03T14:15:15.767Z,10.55
2018-11-03T14:17:44.056Z,11.48
2018-11-03T14:20:13.505Z,12.37
2018-11-03T14:22:42.583Z,14.83
2018-11-03T14:25:12.537Z,11.45
2018-11-03T14:27:41.296Z,14.90
2018-11-03T14:30:10.422Z,12.45
2018-11-03T14:32:38.666Z,12.80
2018-11-03T14:35:07.486Z,15.30
2018-11-03T14:37:35.822Z,12.15
2018-11-03T14:40:04.350Z,12.45
2018-11-03T14:42:32.671Z,13.45
2018-11-03T14:45:01.011Z,12.50
2018-11-03T14:47:29.306Z,14.10
2018-11-03T14:49:57.814Z,14.98
2018-11-03T14:52:26.151Z,14.98
2018-11-03T14:54:54.418Z,12.82
2018-11-03T14:57:22.694Z,15.18
2018-11-03T14:59:51.294Z,15.45
2018-11-03T15:02:19.645Z,12.28
2018-11-03T15:04:47.976Z,15.58
2018-11-03T15:07:16.304Z,12.63
2018-11-03T15:09:44.582Z,15.05
2018-11-03T15:12:13.177Z,14.07
2018-11-03T15:14:41.508Z,13.85
2018-11-03T15:17:09.787Z,15.18
2018-11-03T15:19:38.290Z,15.03
2018-11-03T15:22:07.062Z,14.60
2018-11-03T15:24:35.450Z,15.53
2018-11-03T15:27:04.396Z,22.67
2018-11-03T15:29:32.734Z,13.95
2018-11-03T15:32:01.105Z,18.90
2018-11-03T15:34:29.558Z,17.98
2018-11-03T15:36:57.977Z,15.50
2018-11-03T15:39:26.263Z,17.05
2018-11-03T15:41:54.850Z,18.65
2018-11-03T15:44:23.144Z,21.37
2018-11-03T15:46:51.433Z,21.73
2018-11-03T15:49:19.679Z,16.55
2018-11-03T15:51:47.911Z,18.73
2018-11-03T15:54:16.444Z,21.37
2018-11-03T15:56:44.739Z,24.32
2018-11-03T15:59:12.994Z,21.30
2018-11-03T16:01:41.246Z,22.65
2018-11-03T16:04:09.476Z,21.07
2018-11-03T16:06:38.030Z,18.23
2018-11-03T16:09:09.155Z,22.25
2018-11-03T16:11:37.406Z,22.02
2018-11-03T16:14:05.733Z,17.95
2018-11-03T16:16:34.047Z,19.52
2018-11-03T16:19:02.335Z,16.60
2018-11-03T16:21:30.654Z,17.65
2018-11-03T16:23:58.926Z,17.82
2018-11-03T16:26:27.358Z,20.30
2018-11-03T16:28:55.609Z,22.40
2018-11-03T16:31:24.266Z,18.35
2018-11-03T16:33:52.533Z,19.67
2018-11-03T16:36:20.758Z,18.20
2018-11-03T16:38:49.059Z,20.45
2018-11-03T16:41:17.333Z,24.02
2018-11-03T16:43:45.626Z,21.02
2018-11-03T16:46:13.885Z,19.55
2018-11-03T16:48:42.204Z,20.77
2018-11-03T16:51:10.664Z,23.20
2018-11-03T16:53:39.082Z,22.45
2018-11-03T16:56:07.379Z,19.17
2018-11-03T16:58:35.810Z,19.52
2018-11-03T17:01:04.146Z,22.75
2018-11-03T17:03:32.459Z,24.05
2018-11-03T17:06:00.734Z,23.18
2018-11-03T17:08:29.008Z,20.45
2018-11-03T17:10:57.304Z,19.67
2018-11-03T17:13:25.589Z,21.80
2018-11-03T17:15:53.846Z,19.80
2018-11-03T17:18:22.231Z,20.32
2018-11-03T17:20:50.470Z,26.42
2018-11-03T17:23:18.813Z,22.55
2018-11-03T17:25:47.080Z,22.20
2018-11-03T17:28:15.397Z,24.05
2018-11-03T17:30:43.636Z,22.30
2018-11-03T17:33:11.881Z,21.23
2018-11-03T17:35:40.178Z,21.23
2018-11-03T17:38:08.426Z,24.60
2018-11-03T17:40:36.685Z,27.37
2018-11-03T17:43:05.038Z,21.90
2018-11-03T17:45:33.240Z,23.52
2018-11-03T17:48:01.562Z,22.95
2018-11-03T17:50:29.902Z,24.45
2018-11-03T17:52:58.238Z,29.07
2018-11-03T17:55:26.536Z,22.73
2018-11-03T17:57:54.804Z,21.95
2018-11-03T18:00:25.217Z,22.17
2018-11-03T18:02:53.380Z,22.60
2018-11-03T18:05:21.646Z,24.95
2018-11-03T18:07:49.898Z,27.65
2018-11-03T18:10:18.165Z,25.68
2018-11-03T18:12:46.451Z,37.78
2018-11-03T18:15:14.778Z,44.33
2018-11-03T18:17:43.190Z,28.25
2018-11-03T18:20:11.851Z,27.50
2018-11-03T18:22:40.453Z,27.32
2018-11-03T18:25:08.994Z,26.52
2018-11-03T18:27:37.370Z,27.02
2018-11-03T18:30:07.104Z,31.65
2018-11-03T18:32:35.414Z,26.12
2018-11-03T18:35:03.711Z,25.10
2018-11-03T18:37:31.965Z,30.08
2018-11-03T18:40:00.253Z,27.07
2018-11-03T18:42:28.530Z,25.52
2018-11-03T18:44:56.832Z,24.90
2018-11-03T18:47:25.099Z,25.90
2018-11-03T18:49:53.333Z,31.90
2018-11-03T18:52:21.646Z,25.05
2018-11-03T18:54:50.025Z,23.77
2018-11-03T18:57:18.389Z,29.72
2018-11-03T18:59:46.676Z,27.95
2018-11-03T19:02:15.078Z,28.95
2018-11-03T19:04:43.309Z,27.05
2018-11-03T19:07:11.610Z,29.48
2018-11-03T19:09:39.914Z,28.40
2018-11-03T19:12:08.293Z,30.75
2018-11-03T19:14:36.552Z,26.77
2018-11-03T19:17:05.269Z,30.25
2018-11-03T19:19:33.622Z,29.60
2018-11-03T19:22:01.830Z,28.57
2018-11-03T19:24:30.195Z,32.20
2018-11-03T19:26:58.474Z,29.42
2018-11-03T19:29:26.872Z,31.87
2018-11-03T19:31:56.100Z,32.17
2018-11-03T19:34:24.418Z,26.70
2018-11-03T19:36:52.710Z,31.35
2018-11-03T19:39:21.058Z,29.02
2018-11-03T19:41:49.408Z,32.95
2018-11-03T19:44:17.650Z,27.42
2018-11-03T19:46:45.895Z,30.25
2018-11-03T19:49:14.526Z,28.90
2018-11-03T19:51:42.837Z,30.12
2018-11-03T19:54:11.026Z,28.12
2018-11-03T19:56:39.244Z,27.90
2018-11-03T19:59:07.459Z,27.93
2018-11-03T20:01:35.709Z,28.45
2018-11-03T20:04:04.129Z,28.65
2018-11-03T20:06:32.464Z,28.05
2018-11-03T20:09:00.750Z,25.88
2018-11-03T20:11:29.073Z,30.00
2018-11-03T20:13:57.354Z,31.85
2018-11-03T20:16:25.566Z,27.17
2018-11-03T20:18:53.890Z,27.77
2018-11-03T20:21:22.162Z,27.75
2018-11-03T20:23:50.377Z,30.08
2018-11-03T20:26:18.652Z,25.90
2018-11-03T20:28:46.886Z,29.15
2018-11-03T20:31:15.163Z,31.45
2018-11-03T20:33:43.549Z,29.30
2018-11-03T20:36:11.867Z,29.80
2018-11-03T20:38:41.240Z,28.45
2018-11-03T20:41:09.518Z,29.37
2018-11-03T20:43:37.742Z,31.75
2018-11-03T20:46:06.177Z,28.27
2018-11-03T20:48:34.413Z,32.90
2018-11-03T20:51:09.857Z,30.43
2018-11-03T20:53:38.628Z,35.43
2018-11-03T20:56:07.490Z,37.83
2018-11-03T20:58:35.777Z,34.83
2018-11-03T21:01:04.362Z,42.55
2018-11-03T21:03:32.627Z,41.60
2018-11-03T21:06:00.930Z,42.20
2018-11-03T21:08:29.244Z,51.08
2018-11-03T21:10:57.625Z,43.90
2018-11-03T21:13:25.872Z,43.92
2018-11-03T21:15:54.159Z,33.13
2018-11-03T21:18:22.406Z,35.70
2018-11-03T21:20:50.727Z,31.12
2018-11-03T21:23:19.102Z,33.73
2018-11-03T21:25:47.367Z,32.23
2018-11-03T21:28:15.582Z,32.55
2018-11-03T21:30:43.789Z,35.17
2018-11-03T21:33:12.383Z,39.53
2018-11-03T21:35:40.550Z,32.93
2018-11-03T21:38:08.895Z,36.83
2018-11-03T21:40:37.100Z,33.83
2018-11-03T21:43:05.578Z,32.53
2018-11-03T21:45:33.970Z,33.30
2018-11-03T21:48:02.213Z,35.25
2018-11-03T21:50:30.514Z,36.90
2018-11-03T21:52:58.794Z,39.40
2018-11-03T21:55:27.063Z,40.25
2018-11-03T21:57:55.359Z,41.60
2018-11-03T22:00:23.692Z,38.08
2018-11-03T22:02:52.009Z,37.65
2018-11-03T22:05:20.295Z,39.67
2018-11-03T22:07:49.361Z,37.65
2018-11-03T22:10:17.712Z,35.33
2018-11-03T22:12:46.019Z,36.60
2018-11-03T22:15:14.334Z,38.83
2018-11-03T22:17:42.634Z,39.58
2018-11-03T22:20:11.768Z,38.02
2018-11-03T22:22:40.637Z,41.37
2018-11-03T22:25:10.165Z,41.55
2018-11-03T22:27:38.657Z,39.45
2018-11-03T22:30:08.578Z,41.53
2018-11-03T22:32:36.920Z,42.25
2018-11-03T22:35:05.341Z,42.15
2018-11-03T22:37:33.629Z,41.60
2018-11-03T22:40:01.865Z,39.13
2018-11-03T22:42:30.079Z,41.83
2018-11-03T22:44:58.397Z,42.35
2018-11-03T22:47:26.587Z,40.08
2018-11-03T22:49:54.789Z,40.30
2018-11-03T22:52:23.329Z,40.50
2018-11-03T22:54:51.617Z,46.30
2018-11-03T22:57:19.909Z,48.00
2018-11-03T22:59:48.149Z,38.83
2018-11-03T23:02:16.384Z,45.08
2018-11-03T23:04:44.645Z,42.65
2018-11-03T23:07:13.002Z,39.80
2018-11-03T23:09:41.261Z,43.87
2018-11-03T23:12:09.536Z,40.70
2018-11-03T23:14:37.850Z,40.15
2018-11-03T23:17:06.115Z,43.15
2018-11-03T23:19:34.777Z,53.40
2018-11-03T23:22:03.106Z,43.13
2018-11-03T23:24:31.395Z,43.68
2018-11-03T23:26:59.902Z,46.08
2018-11-03T23:29:28.211Z,43.00
2018-11-03T23:31:56.361Z,43.98
2018-11-03T23:34:25.027Z,44.03
2018-11-03T23:36:53.361Z,42.35
2018-11-03T23:39:21.602Z,46.08
2018-11-03T23:41:49.914Z,44.85
2018-11-03T23:44:18.216Z,43.75
2018-11-03T23:46:46.442Z,41.05
2018-11-03T23:49:14.670Z,41.92
2018-11-03T23:51:42.890Z,42.10
2018-11-03T23:54:11.198Z,42.03
2018-11-03T23:56:39.503Z,47.05
2018-11-03T23:59:07.757Z,40.33
